createdAt,value
2017-12-04T00:01:32.455Z,98.27
2017-12-04T00:04:02.671Z,104.60
2017-12-04T00:06:32.549Z,90.60
2017-12-04T00:09:02.551Z,97.80
2017-12-04T00:11:31.455Z,97.27
2017-12-04T00:14:00.928Z,87.53
2017-12-04T00:16:30.346Z,89.87
2017-12-04T00:18:59.780Z,88.97
2017-12-04T00:21:28.575Z,99.70
2017-12-04T00:23:57.831Z,88.60
2017-12-04T00:26:27.251Z,83.00
2017-12-04T00:28:56.694Z,91.60
2017-12-04T00:31:26.904Z,82.00
2017-12-04T00:33:56.334Z,74.23
2017-12-04T00:36:26.553Z,92.87
2017-12-04T00:38:56.772Z,77.17
2017-12-04T00:41:26.965Z,81.60
2017-12-04T00:43:56.784Z,75.43
2017-12-04T00:46:26.203Z,92.73
2017-12-04T00:48:56.720Z,79.73
2017-12-04T00:51:26.205Z,80.90
2017-12-04T00:53:55.432Z,78.93
2017-12-04T00:56:24.543Z,85.30
2017-12-04T00:58:54.568Z,85.30
2017-12-04T01:01:24.453Z,86.57
2017-12-04T01:03:53.897Z,87.40
2017-12-04T01:06:23.343Z,79.47
2017-12-04T01:08:52.607Z,81.47
2017-12-04T01:11:22.039Z,81.90
2017-12-04T01:13:51.472Z,81.53
2017-12-04T01:16:21.313Z,91.00
2017-12-04T01:18:50.544Z,102.97
2017-12-04T01:21:19.801Z,126.20
2017-12-04T01:23:50.032Z,91.77
2017-12-04T01:26:20.268Z,83.57
2017-12-04T01:28:50.875Z,94.60
2017-12-04T01:31:21.261Z,102.00
2017-12-04T01:33:51.975Z,87.27
2017-12-04T01:36:21.211Z,90.53
2017-12-04T01:38:50.664Z,103.63
2017-12-04T01:41:20.380Z,94.57
2017-12-04T01:43:49.815Z,109.23
2017-12-04T01:46:19.041Z,95.63
2017-12-04T01:48:49.521Z,110.23
2017-12-04T01:51:18.987Z,102.40
2017-12-04T01:53:49.559Z,90.63
2017-12-04T01:56:18.999Z,99.87
2017-12-04T01:58:48.103Z,95.97
2017-12-04T02:01:17.575Z,101.17
2017-12-04T02:03:46.169Z,92.03
2017-12-04T02:06:15.620Z,86.17
2017-12-04T02:08:44.941Z,100.57
2017-12-04T02:11:14.394Z,101.60
2017-12-04T02:13:43.830Z,92.53
2017-12-04T02:16:13.561Z,111.17
2017-12-04T02:18:43.406Z,85.03
2017-12-04T02:21:12.513Z,87.77
2017-12-04T02:23:41.595Z,89.60
2017-12-04T02:26:10.374Z,96.00
2017-12-04T02:28:39.142Z,94.13
2017-12-04T02:31:08.589Z,97.83
2017-12-04T02:33:37.360Z,90.87
2017-12-04T02:36:07.369Z,86.27
2017-12-04T02:38:37.077Z,82.57
2017-12-04T02:41:05.650Z,88.70
2017-12-04T02:43:34.224Z,91.27
2017-12-04T02:46:03.307Z,109.03
2017-12-04T02:48:31.893Z,95.37
2017-12-04T02:51:01.944Z,103.50
2017-12-04T02:53:30.728Z,90.43
2017-12-04T02:55:59.641Z,88.37
2017-12-04T02:58:28.560Z,91.03
2017-12-04T03:00:58.834Z,82.80
2017-12-04T03:03:27.749Z,82.83
2017-12-04T03:05:57.030Z,86.60
2017-12-04T03:08:26.734Z,74.17
2017-12-04T03:10:56.163Z,83.23
2017-12-04T03:13:25.617Z,83.67
2017-12-04T03:15:55.050Z,80.47
2017-12-04T03:18:24.160Z,76.67
2017-12-04T03:20:52.931Z,73.77
2017-12-04T03:23:22.443Z,70.70
2017-12-04T03:25:51.022Z,65.03
2017-12-04T03:28:20.120Z,46.53
2017-12-04T03:30:48.703Z,60.57
2017-12-04T03:33:17.465Z,47.57
2017-12-04T03:35:46.045Z,52.67
2017-12-04T03:38:14.983Z,44.73
2017-12-04T03:40:43.568Z,50.20
2017-12-04T03:43:12.351Z,50.97
2017-12-04T03:45:40.961Z,50.17
2017-12-04T03:48:10.196Z,53.13
2017-12-04T03:50:39.636Z,40.83
2017-12-04T03:53:09.448Z,48.17
2017-12-04T03:55:38.885Z,38.00
2017-12-04T03:58:08.320Z,41.10
2017-12-04T04:00:38.052Z,36.23
2017-12-04T04:03:07.474Z,45.73
2017-12-04T04:05:36.719Z,41.57
2017-12-04T04:08:06.922Z,40.90
2017-12-04T04:10:36.347Z,29.63
2017-12-04T04:13:05.789Z,38.50
2017-12-04T04:15:35.487Z,27.20
2017-12-04T04:18:04.911Z,35.70
2017-12-04T04:20:34.347Z,41.10
2017-12-04T04:23:04.028Z,30.43
2017-12-04T04:25:33.465Z,37.43
2017-12-04T04:28:03.538Z,24.57
2017-12-04T04:30:33.095Z,42.50
2017-12-04T04:33:03.293Z,28.90
2017-12-04T04:35:32.742Z,33.40
2017-12-04T04:38:03.246Z,36.60
2017-12-04T04:40:32.768Z,27.80
2017-12-04T04:43:03.336Z,28.73
2017-12-04T04:45:32.778Z,40.77
2017-12-04T04:48:02.219Z,35.97
2017-12-04T04:50:31.423Z,31.23
2017-12-04T04:53:00.148Z,37.43
2017-12-04T04:55:28.854Z,44.57
2017-12-04T04:57:59.318Z,45.43
2017-12-04T05:00:28.800Z,48.53
2017-12-04T05:02:58.479Z,42.90
2017-12-04T05:05:28.128Z,36.83
2017-12-04T05:07:58.310Z,36.97
2017-12-04T05:10:27.419Z,38.47
2017-12-04T05:12:57.182Z,42.10
2017-12-04T05:15:26.607Z,45.77
2017-12-04T05:17:56.038Z,40.10
2017-12-04T05:20:25.601Z,44.33
2017-12-04T05:22:54.645Z,53.57
2017-12-04T05:25:24.855Z,54.87
2017-12-04T05:27:54.284Z,42.27
2017-12-04T05:30:24.489Z,44.27
2017-12-04T05:32:54.503Z,42.63
2017-12-04T05:35:23.939Z,47.70
2017-12-04T05:37:53.362Z,53.33
2017-12-04T05:40:23.386Z,46.73
2017-12-04T05:42:52.808Z,46.73
2017-12-04T05:45:22.114Z,51.77
2017-12-04T05:47:51.901Z,42.73
2017-12-04T05:50:21.333Z,53.63
2017-12-04T05:52:50.571Z,42.70
2017-12-04T05:55:20.807Z,46.57
2017-12-04T05:57:50.234Z,42.90
2017-12-04T06:00:19.689Z,53.37
2017-12-04T06:02:50.488Z,49.43
2017-12-04T06:05:19.911Z,48.03
2017-12-04T06:07:49.334Z,48.60
2017-12-04T06:10:19.860Z,44.80
2017-12-04T06:12:50.071Z,54.87
2017-12-04T06:15:19.514Z,54.03
2017-12-04T06:17:49.342Z,43.60
2017-12-04T06:20:18.794Z,47.43
2017-12-04T06:22:48.037Z,45.63
2017-12-04T06:25:17.867Z,40.20
2017-12-04T06:27:47.512Z,41.67
2017-12-04T06:30:16.980Z,41.10
2017-12-04T06:32:46.824Z,39.57
2017-12-04T06:35:16.279Z,37.53
2017-12-04T06:37:46.040Z,38.57
2017-12-04T06:40:15.515Z,35.70
2017-12-04T06:42:44.951Z,29.67
2017-12-04T06:45:14.741Z,40.33
2017-12-04T06:47:43.964Z,31.23
2017-12-04T06:50:13.392Z,42.03
2017-12-04T06:52:43.632Z,33.17
2017-12-04T06:55:13.623Z,34.80
2017-12-04T06:57:44.217Z,34.70
2017-12-04T07:00:13.638Z,34.73
2017-12-04T07:02:42.870Z,43.53
2017-12-04T07:05:13.848Z,45.87
2017-12-04T07:07:43.286Z,45.80
2017-12-04T07:10:12.714Z,37.97
2017-12-04T07:12:42.476Z,46.93
2017-12-04T07:15:11.904Z,37.70
2017-12-04T07:17:41.342Z,38.87
2017-12-04T07:20:11.086Z,35.60
2017-12-04T07:22:40.532Z,35.63
2017-12-04T07:25:09.956Z,42.30
2017-12-04T07:27:39.435Z,36.37
2017-12-04T07:30:08.878Z,43.63
2017-12-04T07:32:38.320Z,38.90
2017-12-04T07:35:08.128Z,38.70
2017-12-04T07:37:37.435Z,35.80
2017-12-04T07:40:06.873Z,43.40
2017-12-04T07:42:37.072Z,40.80
2017-12-04T07:45:06.494Z,42.93
2017-12-04T07:47:36.714Z,44.53
2017-12-04T07:50:07.391Z,50.93
2017-12-04T07:52:36.823Z,36.60
2017-12-04T07:55:06.267Z,44.80
2017-12-04T07:57:36.827Z,34.40
2017-12-04T08:00:06.259Z,39.73
2017-12-04T08:02:35.298Z,39.80
2017-12-04T08:05:05.320Z,34.53
2017-12-04T08:07:34.573Z,34.80
2017-12-04T08:10:03.814Z,39.67
2017-12-04T08:12:34.378Z,34.80
2017-12-04T08:15:03.619Z,27.87
2017-12-04T08:17:33.059Z,30.63
2017-12-04T08:20:02.550Z,34.30
2017-12-04T08:22:32.559Z,34.93
2017-12-04T08:25:02.578Z,29.57
2017-12-04T08:27:32.608Z,23.43
2017-12-04T08:30:03.825Z,31.67
2017-12-04T08:32:33.256Z,39.57
2017-12-04T08:35:03.279Z,34.30
2017-12-04T08:37:32.713Z,30.37
2017-12-04T08:40:02.126Z,30.23
2017-12-04T08:42:31.825Z,34.37
2017-12-04T08:45:01.165Z,28.47
2017-12-04T08:47:30.588Z,25.93
2017-12-04T08:50:00.603Z,29.30
2017-12-04T08:52:30.795Z,27.80
2017-12-04T08:55:00.571Z,17.93
2017-12-04T08:57:29.996Z,29.37
2017-12-04T08:59:59.102Z,19.23
2017-12-04T09:02:28.811Z,25.47
2017-12-04T09:04:58.231Z,28.80
2017-12-04T09:07:27.327Z,20.40
2017-12-04T09:09:56.849Z,30.93
2017-12-04T09:12:25.747Z,21.73
2017-12-04T09:14:56.314Z,24.60
2017-12-04T09:17:25.222Z,26.00
2017-12-04T09:19:54.644Z,23.10
2017-12-04T09:22:23.766Z,26.60
2017-12-04T09:24:53.987Z,24.23
2017-12-04T09:27:24.560Z,21.37
2017-12-04T09:29:53.995Z,23.53
2017-12-04T09:32:22.781Z,24.77
2017-12-04T09:34:53.068Z,24.17
2017-12-04T09:37:22.910Z,27.17
2017-12-04T09:39:52.828Z,25.10
2017-12-04T09:42:22.600Z,22.00
2017-12-04T09:44:51.703Z,19.07
2017-12-04T09:47:22.129Z,26.70
2017-12-04T09:49:51.707Z,18.23
2017-12-04T09:52:21.886Z,28.77
2017-12-04T09:54:51.323Z,29.20
2017-12-04T09:57:21.216Z,26.97
2017-12-04T09:59:50.655Z,25.93
2017-12-04T10:02:20.995Z,28.33
2017-12-04T10:04:50.233Z,27.20
2017-12-04T10:07:19.672Z,26.70
2017-12-04T10:09:49.891Z,26.13
2017-12-04T10:12:19.321Z,21.77
2017-12-04T10:14:48.742Z,27.33
2017-12-04T10:17:18.561Z,27.20
2017-12-04T10:19:47.652Z,30.00
2017-12-04T10:22:16.402Z,33.73
2017-12-04T10:24:46.778Z,23.20
2017-12-04T10:27:16.203Z,27.63
2017-12-04T10:29:45.621Z,26.27
2017-12-04T10:32:14.748Z,26.83
2017-12-04T10:34:43.986Z,26.63
2017-12-04T10:37:13.130Z,25.23
2017-12-04T10:39:43.154Z,26.90
2017-12-04T10:42:12.600Z,24.13
2017-12-04T10:44:41.831Z,22.63
2017-12-04T10:47:11.338Z,19.97
2017-12-04T10:49:40.275Z,24.67
2017-12-04T10:52:09.743Z,32.17
2017-12-04T10:54:39.615Z,18.80
2017-12-04T10:57:08.517Z,28.83
2017-12-04T10:59:37.440Z,27.23
2017-12-04T11:02:06.272Z,30.37
2017-12-04T11:04:35.320Z,25.17
2017-12-04T11:07:04.756Z,24.77
2017-12-04T11:09:33.739Z,19.93
2017-12-04T11:12:03.938Z,26.60
2017-12-04T11:14:34.458Z,26.07
2017-12-04T11:17:03.945Z,22.23
2017-12-04T11:19:33.552Z,23.57
2017-12-04T11:22:03.162Z,21.63
2017-12-04T11:24:32.394Z,20.40
2017-12-04T11:27:02.438Z,23.97
2017-12-04T11:29:31.920Z,28.37
2017-12-04T11:32:01.785Z,24.83
2017-12-04T11:34:31.420Z,30.20
2017-12-04T11:37:01.229Z,27.33
2017-12-04T11:39:30.329Z,15.50
2017-12-04T11:41:59.769Z,24.50
2017-12-04T11:44:29.644Z,21.23
2017-12-04T11:46:58.753Z,18.73
2017-12-04T11:49:28.175Z,22.97
2017-12-04T11:51:58.522Z,23.77
2017-12-04T11:54:27.962Z,18.37
2017-12-04T11:56:57.048Z,20.00
2017-12-04T11:59:26.749Z,20.27
2017-12-04T12:01:56.187Z,24.57
2017-12-04T12:04:25.618Z,21.30
2017-12-04T12:06:55.363Z,13.63
2017-12-04T12:09:24.631Z,17.23
2017-12-04T12:11:54.655Z,18.87
2017-12-04T12:14:23.927Z,15.70
2017-12-04T12:16:53.154Z,16.70
2017-12-04T12:19:22.581Z,19.23
2017-12-04T12:21:52.203Z,17.40
2017-12-04T12:24:21.619Z,20.63
2017-12-04T12:26:51.063Z,23.83
2017-12-04T12:29:21.408Z,22.47
2017-12-04T12:31:50.846Z,12.07
2017-12-04T12:34:20.266Z,13.47
2017-12-04T12:36:50.779Z,15.00
2017-12-04T12:39:20.265Z,17.10
2017-12-04T12:41:49.679Z,22.80
2017-12-04T12:44:19.478Z,16.80
2017-12-04T12:46:48.986Z,17.20
2017-12-04T12:49:18.077Z,14.70
2017-12-04T12:51:47.567Z,18.90
2017-12-04T12:54:17.016Z,15.63
2017-12-04T12:56:46.439Z,16.73
2017-12-04T12:59:15.872Z,19.50
2017-12-04T13:01:45.296Z,20.23
2017-12-04T13:04:14.732Z,12.80
2017-12-04T13:06:44.521Z,13.13
2017-12-04T13:09:13.980Z,13.93
2017-12-04T13:11:44.329Z,15.63
2017-12-04T13:14:13.768Z,24.30
2017-12-04T13:16:43.199Z,21.57
2017-12-04T13:19:12.680Z,12.83
2017-12-04T13:21:42.099Z,26.00
2017-12-04T13:24:11.536Z,15.40
2017-12-04T13:26:42.100Z,13.70
2017-12-04T13:29:11.524Z,20.37
2017-12-04T13:31:40.986Z,17.83
2017-12-04T13:34:21.974Z,17.70
2017-12-04T13:36:50.343Z,18.77
2017-12-04T13:39:19.375Z,17.53
2017-12-04T13:41:48.627Z,19.60
2017-12-04T13:44:18.073Z,18.67
2017-12-04T13:46:47.479Z,21.30
2017-12-04T13:49:17.268Z,19.73
2017-12-04T13:51:46.723Z,18.37
2017-12-04T13:54:16.152Z,22.40
2017-12-04T13:56:45.408Z,16.93
2017-12-04T13:59:14.820Z,24.77
2017-12-04T14:01:44.071Z,21.03
2017-12-04T14:04:13.809Z,22.87
2017-12-04T14:06:43.452Z,18.60
2017-12-04T14:09:12.918Z,15.97
2017-12-04T14:11:42.343Z,13.70
2017-12-04T14:14:11.964Z,17.00
2017-12-04T14:16:41.724Z,12.93
2017-12-04T14:19:11.161Z,18.93
2017-12-04T14:21:40.584Z,13.70
2017-12-04T14:24:10.019Z,13.53
2017-12-04T14:26:39.461Z,14.93
2017-12-04T14:29:08.887Z,16.73
2017-12-04T14:31:38.459Z,18.27
2017-12-04T14:34:07.892Z,14.57
2017-12-04T14:36:37.326Z,15.37
2017-12-04T14:39:07.906Z,18.00
2017-12-04T14:41:37.325Z,22.90
2017-12-04T14:44:06.748Z,29.27
2017-12-04T14:46:35.903Z,23.03
2017-12-04T14:49:04.806Z,18.20
2017-12-04T14:51:33.588Z,18.00
2017-12-04T14:54:02.511Z,19.53
2017-12-04T14:56:31.373Z,17.10
2017-12-04T14:59:00.119Z,16.60
2017-12-04T15:01:29.361Z,16.00
2017-12-04T15:03:58.128Z,21.23
2017-12-04T15:06:27.226Z,22.73
2017-12-04T15:08:56.323Z,19.10
2017-12-04T15:11:24.887Z,12.43
2017-12-04T15:13:53.287Z,15.87
2017-12-04T15:16:22.570Z,14.00
2017-12-04T15:18:51.334Z,20.27
2017-12-04T15:21:21.271Z,18.50
2017-12-04T15:23:49.964Z,16.27
2017-12-04T15:26:19.674Z,20.17
2017-12-04T15:28:48.244Z,21.40
2017-12-04T15:31:17.028Z,20.53
2017-12-04T15:33:45.601Z,28.40
2017-12-04T15:36:14.962Z,18.10
2017-12-04T15:38:43.871Z,13.67
2017-12-04T15:41:12.671Z,13.70
2017-12-04T15:43:41.987Z,20.03
2017-12-04T15:46:11.530Z,20.20
2017-12-04T15:48:40.683Z,26.27
2017-12-04T15:51:09.419Z,17.17
2017-12-04T15:53:38.507Z,23.80
2017-12-04T15:56:07.266Z,21.63
2017-12-04T15:58:36.802Z,18.20
2017-12-04T16:01:05.900Z,18.77
2017-12-04T16:03:34.793Z,21.17
2017-12-04T16:06:03.563Z,23.60
2017-12-04T16:08:32.344Z,19.77
2017-12-04T16:11:00.947Z,21.93
2017-12-04T16:13:30.092Z,21.87
2017-12-04T16:16:00.167Z,19.90
2017-12-04T16:18:29.696Z,22.43
2017-12-04T16:20:59.127Z,21.37
2017-12-04T16:23:29.502Z,18.40
2017-12-04T16:25:58.927Z,25.67
2017-12-04T16:28:28.013Z,17.57
2017-12-04T16:30:56.938Z,28.23
2017-12-04T16:33:25.538Z,22.83
2017-12-04T16:35:58.607Z,21.57
2017-12-04T16:38:27.859Z,26.37
2017-12-04T16:40:56.754Z,15.63
2017-12-04T16:43:26.100Z,24.03
2017-12-04T16:45:55.715Z,17.17
2017-12-04T16:48:24.467Z,15.60
2017-12-04T16:50:54.813Z,24.30
2017-12-04T16:53:23.904Z,21.90
2017-12-04T16:55:53.031Z,17.83
2017-12-04T16:58:24.738Z,20.73
2017-12-04T17:00:53.327Z,31.93
2017-12-04T17:03:22.444Z,21.67
2017-12-04T17:05:51.743Z,20.23
2017-12-04T17:08:20.494Z,21.80
2017-12-04T17:10:49.914Z,27.90
2017-12-04T17:13:19.821Z,15.17
2017-12-04T17:15:50.456Z,17.90
2017-12-04T17:18:20.159Z,17.70
2017-12-04T17:20:49.454Z,12.73
2017-12-04T17:23:18.548Z,17.77
2017-12-04T17:25:48.479Z,18.67
2017-12-04T17:28:17.790Z,16.53
2017-12-04T17:30:47.201Z,25.87
2017-12-04T17:33:16.423Z,20.93
2017-12-04T17:35:45.856Z,27.63
2017-12-04T17:38:15.380Z,22.00
2017-12-04T17:40:44.683Z,12.10
2017-12-04T17:43:14.140Z,15.67
2017-12-04T17:45:43.611Z,16.07
2017-12-04T17:48:13.167Z,19.70
2017-12-04T17:50:43.152Z,20.37
2017-12-04T17:53:13.264Z,27.10
2017-12-04T17:55:42.530Z,16.50
2017-12-04T17:58:12.262Z,22.10
2017-12-04T18:00:41.605Z,24.10
2017-12-04T18:03:34.258Z,20.93
2017-12-04T18:06:03.745Z,20.97
2017-12-04T18:08:34.342Z,29.90
2017-12-04T18:11:03.795Z,20.70
2017-12-04T18:13:36.170Z,17.00
2017-12-04T18:16:05.244Z,25.30
2017-12-04T18:21:14.186Z,22.43
2017-12-04T18:23:42.740Z,28.53
2017-12-04T18:26:12.231Z,21.97
2017-12-04T18:28:41.188Z,22.67
2017-12-04T18:31:10.302Z,25.57
2017-12-04T18:33:38.864Z,28.03
2017-12-04T18:36:07.443Z,24.10
2017-12-04T18:38:36.219Z,24.47
2017-12-04T18:41:04.991Z,24.07
2017-12-04T18:43:33.750Z,25.40
2017-12-04T18:46:03.299Z,25.97
2017-12-04T18:48:32.390Z,22.13
2017-12-04T18:51:01.551Z,25.53
2017-12-04T18:53:31.082Z,22.53
2017-12-04T18:55:59.658Z,26.23
2017-12-04T18:58:28.239Z,21.77
2017-12-04T19:00:57.012Z,21.47
2017-12-04T19:03:25.595Z,31.97
2017-12-04T19:05:54.747Z,40.10
2017-12-04T19:08:23.859Z,31.10
2017-12-04T19:10:52.689Z,28.83
2017-12-04T19:13:21.507Z,34.73
2017-12-04T19:15:50.467Z,29.33
2017-12-04T19:18:19.242Z,35.97
2017-12-04T19:20:48.571Z,32.70
2017-12-04T19:23:17.422Z,22.03
2017-12-04T19:25:45.997Z,27.20
2017-12-04T19:28:15.253Z,32.40
2017-12-04T19:30:43.798Z,33.90
2017-12-04T19:33:12.409Z,31.60
2017-12-04T19:35:41.559Z,28.40
2017-12-04T19:38:10.327Z,32.27
2017-12-04T19:40:39.172Z,44.63
2017-12-04T19:43:08.102Z,27.60
2017-12-04T19:45:36.880Z,31.43
2017-12-04T19:48:06.496Z,34.63
2017-12-04T19:50:35.377Z,30.07
2017-12-04T19:53:03.924Z,31.83
2017-12-04T19:55:33.812Z,36.20
2017-12-04T19:58:03.024Z,28.93
2017-12-04T20:00:32.507Z,33.53
2017-12-04T20:03:01.727Z,35.33
2017-12-04T20:05:31.754Z,31.23
2017-12-04T20:08:00.605Z,35.53
2017-12-04T20:10:29.167Z,34.50
2017-12-04T20:12:57.860Z,37.93
2017-12-04T20:15:26.779Z,34.73
2017-12-04T20:17:55.667Z,37.73
2017-12-04T20:20:24.775Z,41.23
2017-12-04T20:22:53.518Z,43.03
2017-12-04T20:25:22.813Z,43.83
2017-12-04T20:27:51.722Z,42.37
2017-12-04T20:30:20.516Z,43.33
2017-12-04T20:32:49.678Z,41.83
2017-12-04T20:35:18.800Z,42.63
2017-12-04T20:37:47.224Z,39.83
2017-12-04T20:40:16.743Z,45.93
2017-12-04T20:42:45.688Z,45.47
2017-12-04T20:45:14.448Z,52.73
2017-12-04T20:47:43.364Z,49.30
2017-12-04T20:50:13.058Z,52.13
2017-12-04T20:52:41.680Z,44.43
2017-12-04T20:55:10.447Z,49.57
2017-12-04T20:57:39.355Z,44.33
2017-12-04T21:00:08.382Z,57.37
2017-12-04T21:02:36.918Z,49.93
2017-12-04T21:05:05.853Z,54.60
2017-12-04T21:07:47.019Z,46.17
2017-12-04T21:10:28.231Z,53.23
2017-12-04T21:13:08.615Z,58.87
2017-12-04T21:18:37.382Z,47.33
2017-12-04T21:21:06.624Z,50.30
2017-12-04T21:23:35.593Z,47.97
2017-12-04T21:26:04.176Z,54.33
2017-12-04T21:28:33.382Z,60.63
2017-12-04T21:31:02.991Z,56.20
2017-12-04T21:33:31.771Z,62.33
2017-12-04T21:36:01.389Z,57.80
2017-12-04T21:38:30.389Z,56.20
2017-12-04T21:40:59.471Z,55.33
2017-12-04T21:43:28.070Z,58.00
2017-12-04T21:45:56.883Z,61.97
2017-12-04T21:48:26.966Z,53.77
2017-12-04T21:50:56.041Z,61.43
2017-12-04T21:53:25.600Z,66.73
2017-12-04T21:55:54.365Z,48.23
2017-12-04T21:58:24.221Z,61.63
2017-12-04T22:00:52.992Z,61.83
2017-12-04T22:03:22.950Z,54.13
2017-12-04T22:05:52.083Z,60.00
2017-12-04T22:08:20.650Z,56.80
2017-12-04T22:10:49.211Z,68.67
2017-12-04T22:13:19.088Z,58.63
2017-12-04T22:15:47.877Z,67.00
2017-12-04T22:18:16.688Z,74.53
2017-12-04T22:20:45.688Z,63.87
2017-12-04T22:23:14.453Z,58.93
2017-12-04T22:25:43.042Z,57.27
2017-12-04T22:28:12.723Z,57.63
2017-12-04T22:30:41.332Z,57.80
2017-12-04T22:33:10.134Z,56.97
2017-12-04T22:35:39.207Z,58.67
2017-12-04T22:38:07.795Z,53.60
2017-12-04T22:40:36.457Z,60.27
2017-12-04T22:43:06.453Z,55.73
2017-12-04T22:45:35.589Z,58.83
2017-12-04T22:48:04.371Z,56.07
2017-12-04T22:50:33.214Z,62.57
2017-12-04T22:53:02.134Z,53.70
2017-12-04T22:55:30.937Z,63.70
2017-12-04T22:58:00.166Z,58.43
2017-12-04T23:00:31.017Z,55.87
2017-12-04T23:02:59.596Z,56.53
2017-12-04T23:05:30.436Z,58.23
2017-12-04T23:07:59.180Z,54.03
2017-12-04T23:10:28.285Z,62.87
2017-12-04T23:12:57.675Z,53.43
2017-12-04T23:15:26.247Z,50.97
2017-12-04T23:17:55.012Z,52.80
2017-12-04T23:20:24.368Z,55.20
2017-12-04T23:22:52.956Z,59.60
2017-12-04T23:25:21.848Z,57.53
2017-12-04T23:27:50.956Z,66.67
2017-12-04T23:30:19.543Z,64.33
2017-12-04T23:32:48.348Z,58.90
2017-12-04T23:35:18.419Z,71.23
2017-12-04T23:37:47.184Z,65.23
2017-12-04T23:40:16.734Z,61.77
2017-12-04T23:42:46.439Z,60.77
2017-12-04T23:45:15.217Z,65.43
2017-12-04T23:47:45.423Z,67.20
2017-12-04T23:50:14.660Z,52.03
2017-12-04T23:52:44.085Z,60.03
2017-12-04T23:55:13.308Z,64.13
2017-12-04T23:57:42.695Z,51.33
